createdAt,value
2019-03-26T00:02:13.485Z,18.90
2019-03-26T00:04:41.593Z,14.83
2019-03-26T00:07:09.537Z,15.87
2019-03-26T00:09:37.367Z,17.37
2019-03-26T00:12:05.224Z,18.53
2019-03-26T00:14:33.203Z,11.90
2019-03-26T00:17:01.031Z,23.27
2019-03-26T00:19:29.114Z,20.53
2019-03-26T00:21:56.944Z,22.20
2019-03-26T00:24:24.899Z,22.73
2019-03-26T00:26:53.312Z,22.33
2019-03-26T00:29:21.472Z,18.13
2019-03-26T00:31:49.313Z,18.50
2019-03-26T00:34:19.627Z,13.23
2019-03-26T00:36:46.999Z,12.67
2019-03-26T00:39:15.280Z,14.40
2019-03-26T00:41:43.399Z,18.97
2019-03-26T00:44:11.541Z,21.63
2019-03-26T00:46:39.708Z,14.30
2019-03-26T00:49:08.122Z,12.20
2019-03-26T00:51:35.967Z,13.33
2019-03-26T00:54:03.813Z,13.23
2019-03-26T00:56:31.731Z,23.70
2019-03-26T00:58:59.698Z,12.57
2019-03-26T01:01:27.731Z,16.40
2019-03-26T01:03:56.143Z,19.83
2019-03-26T01:06:24.007Z,16.67
2019-03-26T01:08:51.942Z,16.60
2019-03-26T01:11:19.844Z,20.97
2019-03-26T01:13:47.920Z,22.20
2019-03-26T01:16:15.751Z,17.13
2019-03-26T01:18:43.590Z,13.47
2019-03-26T01:21:11.399Z,12.33
2019-03-26T01:23:39.223Z,10.97
2019-03-26T01:26:07.127Z,13.50
2019-03-26T01:28:35.339Z,11.93
2019-03-26T01:31:03.175Z,18.87
2019-03-26T01:33:31.416Z,12.53
2019-03-26T01:35:59.227Z,13.20
2019-03-26T01:38:27.329Z,18.67
2019-03-26T01:40:55.139Z,12.67
2019-03-26T01:43:22.998Z,16.03
2019-03-26T01:45:50.804Z,12.73
2019-03-26T01:48:18.649Z,9.97
2019-03-26T01:50:46.786Z,13.37
2019-03-26T01:53:15.045Z,14.13
2019-03-26T01:55:42.974Z,14.13
2019-03-26T01:58:10.822Z,13.73
2019-03-26T02:00:39.018Z,11.37
2019-03-26T02:03:06.862Z,9.37
2019-03-26T02:05:34.781Z,15.70
2019-03-26T02:08:02.964Z,17.40
2019-03-26T02:10:30.890Z,16.27
2019-03-26T02:12:58.749Z,10.30
2019-03-26T02:15:28.192Z,16.43
2019-03-26T02:17:56.048Z,13.30
2019-03-26T02:20:24.002Z,16.40
2019-03-26T02:22:51.845Z,11.57
2019-03-26T02:25:19.953Z,10.80
2019-03-26T02:27:47.779Z,20.20
2019-03-26T02:30:15.613Z,9.60
2019-03-26T02:32:43.545Z,10.33
2019-03-26T02:35:18.243Z,13.33
2019-03-26T02:37:41.428Z,13.37
2019-03-26T02:40:09.718Z,15.67
2019-03-26T02:42:37.534Z,11.33
2019-03-26T02:45:05.809Z,12.87
2019-03-26T02:47:33.717Z,15.87
2019-03-26T02:50:01.562Z,10.10
2019-03-26T02:52:30.211Z,9.33
2019-03-26T02:54:58.076Z,13.40
2019-03-26T02:57:26.111Z,13.33
2019-03-26T02:59:54.311Z,8.77
2019-03-26T03:02:22.459Z,15.70
2019-03-26T03:04:50.275Z,11.03
2019-03-26T03:07:18.102Z,13.73
2019-03-26T03:09:46.228Z,15.40
2019-03-26T03:12:14.408Z,11.53
2019-03-26T03:14:42.376Z,15.40
2019-03-26T03:17:10.348Z,14.33
2019-03-26T03:19:38.165Z,12.50
2019-03-26T03:22:06.005Z,17.80
2019-03-26T03:24:33.842Z,15.40
2019-03-26T03:27:01.922Z,19.50
2019-03-26T03:29:29.798Z,14.27
2019-03-26T03:31:58.003Z,16.53
2019-03-26T03:34:25.953Z,13.77
2019-03-26T03:36:54.107Z,8.17
2019-03-26T03:39:21.950Z,8.00
2019-03-26T03:41:50.143Z,12.03
2019-03-26T03:44:18.001Z,14.63
2019-03-26T03:46:48.358Z,11.60
2019-03-26T03:49:19.940Z,14.47
2019-03-26T03:51:50.073Z,13.27
2019-03-26T03:54:18.739Z,13.47
2019-03-26T03:56:49.449Z,15.60
2019-03-26T03:59:17.671Z,7.00
2019-03-26T04:01:45.503Z,10.13
2019-03-26T04:04:13.547Z,9.80
2019-03-26T04:06:41.659Z,14.53
2019-03-26T04:09:10.092Z,14.53
2019-03-26T04:11:38.253Z,10.63
2019-03-26T04:14:06.291Z,19.43
2019-03-26T04:16:34.208Z,17.37
2019-03-26T04:19:02.300Z,14.17
2019-03-26T04:21:30.517Z,10.40
2019-03-26T04:23:58.446Z,12.90
2019-03-26T04:26:26.264Z,15.60
2019-03-26T04:28:54.516Z,11.53
2019-03-26T04:31:22.345Z,15.13
2019-03-26T04:33:50.162Z,24.30
2019-03-26T04:36:25.297Z,13.83
2019-03-26T04:38:47.957Z,14.00
2019-03-26T04:41:15.801Z,12.83
2019-03-26T04:43:43.650Z,11.47
2019-03-26T04:46:11.834Z,17.80
2019-03-26T04:48:39.659Z,12.30
2019-03-26T04:51:07.748Z,18.10
2019-03-26T04:53:36.215Z,17.43
2019-03-26T04:56:04.121Z,12.73
2019-03-26T04:58:31.966Z,12.90
2019-03-26T05:00:59.922Z,23.27
2019-03-26T05:03:27.884Z,13.57
2019-03-26T05:05:55.918Z,15.77
2019-03-26T05:08:24.051Z,12.63
2019-03-26T05:10:51.894Z,15.80
2019-03-26T05:13:19.860Z,20.83
2019-03-26T05:15:48.064Z,12.60
2019-03-26T05:18:16.254Z,16.73
2019-03-26T05:20:44.884Z,19.63
2019-03-26T05:23:12.690Z,18.77
2019-03-26T05:25:40.532Z,15.27
2019-03-26T05:28:08.691Z,15.57
2019-03-26T05:30:36.796Z,21.13
2019-03-26T05:33:04.631Z,18.67
2019-03-26T05:35:32.755Z,16.33
2019-03-26T05:38:02.404Z,18.60
2019-03-26T05:40:30.335Z,26.43
2019-03-26T05:42:58.726Z,14.33
2019-03-26T05:45:26.643Z,25.37
2019-03-26T05:47:54.550Z,24.70
2019-03-26T05:50:22.400Z,27.23
2019-03-26T05:52:50.535Z,18.50
2019-03-26T05:55:19.032Z,18.37
2019-03-26T05:57:47.227Z,20.33
2019-03-26T06:00:19.561Z,21.33
2019-03-26T06:02:47.428Z,20.37
2019-03-26T06:05:15.318Z,14.83
2019-03-26T06:07:43.230Z,13.80
2019-03-26T06:10:11.192Z,18.67
2019-03-26T06:12:39.145Z,17.87
2019-03-26T06:15:07.830Z,15.33
2019-03-26T06:17:35.849Z,19.93
2019-03-26T06:20:04.191Z,16.83
2019-03-26T06:22:32.430Z,18.87
2019-03-26T06:25:00.376Z,14.73
2019-03-26T06:27:28.289Z,19.10
2019-03-26T06:29:56.411Z,20.43
2019-03-26T06:32:24.517Z,20.97
2019-03-26T06:34:52.460Z,17.70
2019-03-26T06:37:20.285Z,31.23
2019-03-26T06:39:48.109Z,18.23
2019-03-26T06:42:16.026Z,21.77
2019-03-26T06:44:44.139Z,20.10
2019-03-26T06:47:12.000Z,16.03
2019-03-26T06:49:39.939Z,15.97
2019-03-26T06:52:07.857Z,14.87
2019-03-26T06:54:35.694Z,20.13
2019-03-26T06:57:06.880Z,19.43
2019-03-26T06:59:35.618Z,14.80
2019-03-26T07:02:03.457Z,20.40
2019-03-26T07:04:31.915Z,18.17
2019-03-26T07:06:59.727Z,27.33
2019-03-26T07:09:27.590Z,22.53
2019-03-26T07:11:56.145Z,19.80
2019-03-26T07:14:24.310Z,19.80
2019-03-26T07:16:52.173Z,15.57
2019-03-26T07:19:22.463Z,19.37
2019-03-26T07:21:50.415Z,18.43
2019-03-26T07:24:18.306Z,23.13
2019-03-26T07:26:46.156Z,17.90
2019-03-26T07:29:14.057Z,22.13
2019-03-26T07:31:43.100Z,14.57
2019-03-26T07:34:10.969Z,17.17
2019-03-26T07:36:38.813Z,14.33
2019-03-26T07:39:06.897Z,20.20
2019-03-26T07:41:34.862Z,16.07
2019-03-26T07:44:02.950Z,12.77
2019-03-26T07:46:30.799Z,18.27
2019-03-26T07:48:58.637Z,17.83
2019-03-26T07:51:26.576Z,11.17
2019-03-26T07:53:54.726Z,18.23
2019-03-26T07:56:22.547Z,16.07
2019-03-26T07:58:50.522Z,18.67
2019-03-26T08:01:18.989Z,18.37
2019-03-26T08:03:47.197Z,16.67
2019-03-26T08:06:15.033Z,15.87
2019-03-26T08:08:42.903Z,16.37
2019-03-26T08:11:10.717Z,12.47
2019-03-26T08:13:40.952Z,8.73
2019-03-26T08:16:08.555Z,14.77
2019-03-26T08:18:36.427Z,11.63
2019-03-26T08:21:04.705Z,16.23
2019-03-26T08:23:32.645Z,12.77
2019-03-26T08:26:01.709Z,13.03
2019-03-26T08:28:29.680Z,11.47
2019-03-26T08:30:57.527Z,19.50
2019-03-26T08:33:25.376Z,13.07
2019-03-26T08:35:53.230Z,15.20
2019-03-26T08:38:21.102Z,15.80
2019-03-26T08:40:50.856Z,20.53
2019-03-26T08:43:18.821Z,13.43
2019-03-26T08:45:46.983Z,20.13
2019-03-26T08:48:15.211Z,14.00
2019-03-26T08:50:43.083Z,17.97
2019-03-26T08:53:14.038Z,15.73
2019-03-26T08:55:42.153Z,12.00
2019-03-26T08:58:10.343Z,15.20
2019-03-26T09:00:38.198Z,14.47
2019-03-26T09:03:06.391Z,14.87
2019-03-26T09:05:34.247Z,19.03
2019-03-26T09:08:02.685Z,16.60
2019-03-26T09:10:30.785Z,17.03
2019-03-26T09:12:58.664Z,14.53
2019-03-26T09:15:26.590Z,32.17
2019-03-26T09:17:56.379Z,22.87
2019-03-26T09:20:24.560Z,19.43
2019-03-26T09:22:52.539Z,21.13
2019-03-26T09:25:22.434Z,21.50
2019-03-26T09:27:52.506Z,19.40
2019-03-26T09:30:20.511Z,18.77
2019-03-26T09:32:51.376Z,15.77
2019-03-26T09:35:19.229Z,18.47
2019-03-26T09:37:48.062Z,12.10
2019-03-26T09:40:16.128Z,13.73
2019-03-26T09:42:46.121Z,9.30
2019-03-26T09:45:14.717Z,14.17
2019-03-26T09:47:43.756Z,14.07
2019-03-26T09:50:12.022Z,17.87
2019-03-26T09:52:39.976Z,14.53
2019-03-26T09:55:08.419Z,16.80
2019-03-26T09:57:36.472Z,16.03
2019-03-26T10:00:05.635Z,19.00
2019-03-26T10:02:33.484Z,15.27
2019-03-26T10:05:01.446Z,21.37
2019-03-26T10:07:29.489Z,10.73
2019-03-26T10:09:58.002Z,13.87
2019-03-26T10:12:25.958Z,12.27
2019-03-26T10:14:53.954Z,15.13
2019-03-26T10:17:22.108Z,14.43
2019-03-26T10:19:50.865Z,11.30
2019-03-26T10:22:20.128Z,17.20
2019-03-26T10:24:48.194Z,10.87
2019-03-26T10:27:16.088Z,14.10
2019-03-26T10:29:44.031Z,13.30
2019-03-26T10:32:12.087Z,8.67
2019-03-26T10:34:39.957Z,12.17
2019-03-26T10:37:07.901Z,13.77
2019-03-26T10:39:36.100Z,8.77
2019-03-26T10:42:06.918Z,11.40
2019-03-26T10:44:34.060Z,14.13
2019-03-26T10:47:02.036Z,10.57
2019-03-26T10:49:30.221Z,9.60
2019-03-26T10:51:58.150Z,8.57
2019-03-26T10:54:26.010Z,10.50
2019-03-26T10:56:53.841Z,14.33
2019-03-26T10:59:22.007Z,10.10
2019-03-26T11:01:50.338Z,13.23
2019-03-26T11:04:18.299Z,9.83
2019-03-26T11:06:46.396Z,11.10
2019-03-26T11:09:23.302Z,14.10
2019-03-26T11:11:44.313Z,14.83
2019-03-26T11:14:12.224Z,10.83
2019-03-26T11:16:40.105Z,10.63
2019-03-26T11:19:08.020Z,13.53
2019-03-26T11:21:35.860Z,6.57
2019-03-26T11:24:03.701Z,5.63
2019-03-26T11:26:31.559Z,13.13
2019-03-26T11:28:59.438Z,14.20
2019-03-26T11:31:30.131Z,11.93
2019-03-26T11:33:57.572Z,17.60
2019-03-26T11:36:25.443Z,16.50
2019-03-26T11:38:53.266Z,15.00
2019-03-26T11:41:22.406Z,16.77
2019-03-26T11:43:50.297Z,19.70
2019-03-26T11:46:18.122Z,13.53
2019-03-26T11:48:46.083Z,12.30
2019-03-26T11:51:14.412Z,10.93
2019-03-26T11:53:42.667Z,12.03
2019-03-26T11:56:10.823Z,4.27
2019-03-26T11:58:38.672Z,14.03
2019-03-26T12:01:06.516Z,12.17
2019-03-26T12:03:34.661Z,11.27
2019-03-26T12:06:02.798Z,13.23
2019-03-26T12:08:30.932Z,9.57
2019-03-26T12:10:58.819Z,9.93
2019-03-26T12:13:27.068Z,12.10
2019-03-26T12:15:54.946Z,6.77
2019-03-26T12:18:22.892Z,9.27
2019-03-26T12:20:51.023Z,10.47
2019-03-26T12:23:18.885Z,13.57
2019-03-26T12:25:46.828Z,10.63
2019-03-26T12:28:14.849Z,12.77
2019-03-26T12:30:43.082Z,14.37
2019-03-26T12:33:11.136Z,9.80
2019-03-26T12:35:39.343Z,9.87
2019-03-26T12:38:17.760Z,18.07
2019-03-26T12:40:45.823Z,16.43
2019-03-26T12:43:13.740Z,18.30
2019-03-26T12:45:42.197Z,14.00
2019-03-26T12:48:10.045Z,13.23
2019-03-26T12:50:38.140Z,15.30
2019-03-26T12:53:06.108Z,14.47
2019-03-26T12:55:34.248Z,15.17
2019-03-26T12:58:02.420Z,13.83
2019-03-26T13:00:33.169Z,8.87
2019-03-26T13:03:02.822Z,8.77
2019-03-26T13:05:30.743Z,16.03
2019-03-26T13:07:58.587Z,21.57
2019-03-26T13:10:26.529Z,14.30
2019-03-26T13:12:54.351Z,7.97
2019-03-26T13:15:22.228Z,12.47
2019-03-26T13:17:50.114Z,13.70
2019-03-26T13:20:18.267Z,11.07
2019-03-26T13:22:46.365Z,10.07
2019-03-26T13:25:14.215Z,13.27
2019-03-26T13:27:42.502Z,9.93
2019-03-26T13:30:10.768Z,11.63
2019-03-26T13:32:38.639Z,8.83
2019-03-26T13:35:06.861Z,6.70
2019-03-26T13:37:34.779Z,10.43
2019-03-26T13:40:03.127Z,12.13
2019-03-26T13:42:31.292Z,10.95
2019-03-26T13:45:00.041Z,12.95
2019-03-26T13:47:28.465Z,11.48
2019-03-26T13:49:56.698Z,10.20
2019-03-26T13:52:24.906Z,8.78
2019-03-26T13:54:52.776Z,9.65
2019-03-26T13:57:20.651Z,12.03
2019-03-26T13:59:49.166Z,10.53
2019-03-26T14:02:17.472Z,13.00
2019-03-26T14:04:45.721Z,9.98
2019-03-26T14:07:13.578Z,8.15
2019-03-26T14:09:41.454Z,15.08
2019-03-26T14:12:09.638Z,9.58
2019-03-26T14:14:37.588Z,11.10
2019-03-26T14:17:05.870Z,14.30
2019-03-26T14:19:33.852Z,13.60
2019-03-26T14:22:01.981Z,11.17
2019-03-26T14:24:29.951Z,12.40
2019-03-26T14:26:57.993Z,10.07
2019-03-26T14:29:26.120Z,12.23
2019-03-26T14:31:54.371Z,17.00
2019-03-26T14:34:22.484Z,18.77
2019-03-26T14:36:52.120Z,11.70
2019-03-26T14:39:19.976Z,12.30
2019-03-26T14:41:49.762Z,11.47
2019-03-26T14:44:18.286Z,14.20
2019-03-26T14:46:46.198Z,17.13
2019-03-26T14:49:14.487Z,15.67
2019-03-26T14:51:42.444Z,15.20
2019-03-26T14:54:10.267Z,15.70
2019-03-26T14:56:39.233Z,14.50
2019-03-26T14:59:07.179Z,14.17
2019-03-26T15:01:35.390Z,10.17
2019-03-26T15:04:03.623Z,12.33
2019-03-26T15:06:31.567Z,16.57
2019-03-26T15:09:01.308Z,10.53
2019-03-26T15:11:29.242Z,14.13
2019-03-26T15:13:57.141Z,13.90
2019-03-26T15:16:25.010Z,12.90
2019-03-26T15:18:52.874Z,17.23
2019-03-26T15:21:20.797Z,12.73
2019-03-26T15:23:48.632Z,16.87
2019-03-26T15:26:16.592Z,14.43
2019-03-26T15:28:44.508Z,15.03
2019-03-26T15:31:12.469Z,11.37
2019-03-26T15:33:40.307Z,15.77
2019-03-26T15:36:08.245Z,15.73
2019-03-26T15:38:36.446Z,21.20
2019-03-26T15:41:04.701Z,14.47
2019-03-26T15:43:32.663Z,15.67
2019-03-26T15:46:00.631Z,18.07
2019-03-26T15:48:28.876Z,16.53
2019-03-26T15:50:56.711Z,17.60
2019-03-26T15:53:24.838Z,16.00
2019-03-26T15:55:52.808Z,17.97
2019-03-26T15:58:20.791Z,21.70
2019-03-26T16:00:48.771Z,15.80
2019-03-26T16:03:16.794Z,17.47
2019-03-26T16:05:44.764Z,20.30
2019-03-26T16:08:13.308Z,16.87
2019-03-26T16:10:41.571Z,13.27
2019-03-26T16:13:09.536Z,18.33
2019-03-26T16:15:44.239Z,21.13
2019-03-26T16:18:07.222Z,18.20
2019-03-26T16:20:35.091Z,18.00
2019-03-26T16:23:03.027Z,18.03
2019-03-26T16:25:31.196Z,14.43
2019-03-26T16:27:59.152Z,15.13
2019-03-26T16:30:27.251Z,15.40
2019-03-26T16:32:56.308Z,16.60
2019-03-26T16:35:24.229Z,17.43
2019-03-26T16:37:52.095Z,16.70
2019-03-26T16:40:20.046Z,15.80
2019-03-26T16:42:47.990Z,20.90
2019-03-26T16:45:16.330Z,17.17
2019-03-26T16:47:44.216Z,22.17
2019-03-26T16:50:12.529Z,25.80
2019-03-26T16:52:40.741Z,24.73
2019-03-26T16:55:08.840Z,18.33
2019-03-26T16:57:36.806Z,28.27
2019-03-26T17:00:05.711Z,22.13
2019-03-26T17:02:34.215Z,20.13
2019-03-26T17:05:02.072Z,21.23
2019-03-26T17:07:30.374Z,15.40
2019-03-26T17:09:58.315Z,23.10
2019-03-26T17:12:26.434Z,20.07
2019-03-26T17:14:54.395Z,21.00
2019-03-26T17:17:22.641Z,18.03
2019-03-26T17:19:50.786Z,19.90
2019-03-26T17:22:18.666Z,19.47
2019-03-26T17:24:46.532Z,19.27
2019-03-26T17:27:14.609Z,23.87
2019-03-26T17:29:42.518Z,26.57
2019-03-26T17:32:10.444Z,23.63
2019-03-26T17:34:38.285Z,21.17
2019-03-26T17:37:06.231Z,23.90
2019-03-26T17:39:34.205Z,23.63
2019-03-26T17:42:16.258Z,28.20
2019-03-26T17:44:32.837Z,28.47
2019-03-26T17:47:00.733Z,31.80
2019-03-26T17:49:28.941Z,20.90
2019-03-26T17:51:56.906Z,31.40
2019-03-26T17:54:25.082Z,32.37
2019-03-26T17:56:53.089Z,29.97
2019-03-26T17:59:21.639Z,30.57
2019-03-26T18:01:49.615Z,32.07
2019-03-26T18:04:17.478Z,31.00
2019-03-26T18:06:46.676Z,27.93
2019-03-26T18:09:14.855Z,21.33
2019-03-26T18:11:42.836Z,27.70
2019-03-26T18:14:10.783Z,30.63
2019-03-26T18:16:38.752Z,24.03
2019-03-26T18:19:06.693Z,21.77
2019-03-26T18:21:34.530Z,37.37
2019-03-26T18:24:02.686Z,28.17
2019-03-26T18:26:30.649Z,19.17
2019-03-26T18:28:58.600Z,26.90
2019-03-26T18:31:26.984Z,25.37
2019-03-26T18:33:54.879Z,23.90
2019-03-26T18:36:23.451Z,24.10
2019-03-26T18:38:51.476Z,34.87
2019-03-26T18:41:19.347Z,27.67
2019-03-26T18:43:47.277Z,30.60
2019-03-26T18:46:15.657Z,22.30
2019-03-26T18:48:43.512Z,26.83
2019-03-26T18:51:11.397Z,24.03
2019-03-26T18:53:39.281Z,21.47
2019-03-26T18:56:07.243Z,29.17
2019-03-26T18:58:35.480Z,30.17
2019-03-26T19:01:03.483Z,31.13
2019-03-26T19:03:31.429Z,29.53
2019-03-26T19:05:59.555Z,21.67
2019-03-26T19:08:27.777Z,27.47
2019-03-26T19:10:56.036Z,37.37
2019-03-26T19:13:23.940Z,34.27
2019-03-26T19:15:52.093Z,32.93
2019-03-26T19:18:20.371Z,31.70
2019-03-26T19:21:01.468Z,40.03
2019-03-26T19:23:18.671Z,30.40
2019-03-26T19:25:46.612Z,28.97
2019-03-26T19:28:14.540Z,29.77
2019-03-26T19:30:42.460Z,27.87
2019-03-26T19:33:10.333Z,29.27
2019-03-26T19:35:38.182Z,30.77
2019-03-26T19:38:06.119Z,39.33
2019-03-26T19:40:34.014Z,31.90
2019-03-26T19:43:10.897Z,23.97
2019-03-26T19:45:31.861Z,34.53
2019-03-26T19:48:00.086Z,23.30
2019-03-26T19:50:27.993Z,20.77
2019-03-26T19:52:56.241Z,32.73
2019-03-26T19:55:24.205Z,22.03
2019-03-26T19:57:52.422Z,31.93
2019-03-26T20:00:21.287Z,26.37
2019-03-26T20:02:49.503Z,30.10
2019-03-26T20:05:17.414Z,29.37
2019-03-26T20:07:45.694Z,28.73
2019-03-26T20:10:14.454Z,25.20
2019-03-26T20:12:43.056Z,41.40
2019-03-26T20:15:13.132Z,29.60
2019-03-26T20:17:41.008Z,33.20
2019-03-26T20:20:11.953Z,35.80
2019-03-26T20:22:39.771Z,30.00
2019-03-26T20:25:08.063Z,37.87
2019-03-26T20:27:37.178Z,34.17
2019-03-26T20:30:06.614Z,29.63
2019-03-26T20:32:34.543Z,30.83
2019-03-26T20:35:02.650Z,31.60
2019-03-26T20:37:30.744Z,36.53
2019-03-26T20:39:58.563Z,37.07
2019-03-26T20:42:26.415Z,39.47
2019-03-26T20:44:54.385Z,30.07
2019-03-26T20:47:22.508Z,24.53
2019-03-26T20:49:50.659Z,34.23
2019-03-26T20:52:18.569Z,30.23
2019-03-26T20:54:46.423Z,36.27
2019-03-26T20:57:14.908Z,26.10
2019-03-26T20:59:42.825Z,24.33
2019-03-26T21:02:11.392Z,35.97
2019-03-26T21:04:39.372Z,32.47
2019-03-26T21:07:07.196Z,25.07
2019-03-26T21:09:35.162Z,25.83
2019-03-26T21:12:03.020Z,29.27
2019-03-26T21:14:30.883Z,27.57
2019-03-26T21:16:58.821Z,29.40
2019-03-26T21:19:26.826Z,25.63
2019-03-26T21:21:56.642Z,36.63
2019-03-26T21:24:25.821Z,25.20
2019-03-26T21:26:55.462Z,25.77
2019-03-26T21:29:23.726Z,28.60
2019-03-26T21:31:51.582Z,33.50
2019-03-26T21:34:29.847Z,24.37
2019-03-26T21:36:49.617Z,27.10
2019-03-26T21:39:17.643Z,27.00
2019-03-26T21:41:45.573Z,27.03
2019-03-26T21:44:13.584Z,22.43
2019-03-26T21:46:41.531Z,21.63
2019-03-26T21:49:09.506Z,21.73
2019-03-26T21:51:37.365Z,22.53
2019-03-26T21:54:07.311Z,27.40
2019-03-26T21:56:35.100Z,25.40
2019-03-26T21:59:03.063Z,26.90
2019-03-26T22:01:30.900Z,27.77
2019-03-26T22:03:59.036Z,21.27
2019-03-26T22:06:26.908Z,22.43
2019-03-26T22:08:54.860Z,24.63
2019-03-26T22:11:22.701Z,26.37
2019-03-26T22:13:50.657Z,24.57
2019-03-26T22:16:18.518Z,23.53
2019-03-26T22:18:46.710Z,23.57
2019-03-26T22:21:14.971Z,25.13
2019-03-26T22:23:42.835Z,26.57
2019-03-26T22:26:11.151Z,21.93
2019-03-26T22:28:39.214Z,26.20
2019-03-26T22:31:07.044Z,29.13
2019-03-26T22:33:35.160Z,22.13
2019-03-26T22:36:03.318Z,14.03
2019-03-26T22:38:33.717Z,21.77
2019-03-26T22:41:02.150Z,17.97
2019-03-26T22:43:30.075Z,22.27
2019-03-26T22:45:58.210Z,17.63
2019-03-26T22:48:26.345Z,25.40
2019-03-26T22:50:54.288Z,17.87
2019-03-26T22:53:22.228Z,22.10
2019-03-26T22:55:50.099Z,18.03
2019-03-26T22:58:17.921Z,15.90
2019-03-26T23:00:46.877Z,19.23
2019-03-26T23:03:14.827Z,20.57
2019-03-26T23:05:42.764Z,22.50
2019-03-26T23:08:10.637Z,15.20
2019-03-26T23:10:39.803Z,18.63
2019-03-26T23:13:07.813Z,11.80
2019-03-26T23:15:35.977Z,12.33
2019-03-26T23:18:03.893Z,16.57
2019-03-26T23:20:31.752Z,18.63
2019-03-26T23:23:00.425Z,17.90
2019-03-26T23:25:28.982Z,13.53
2019-03-26T23:27:56.889Z,13.37
2019-03-26T23:30:24.733Z,20.77
2019-03-26T23:32:53.766Z,15.30
2019-03-26T23:35:21.612Z,14.97
2019-03-26T23:37:49.564Z,17.33
2019-03-26T23:40:20.415Z,14.40
2019-03-26T23:42:48.522Z,11.60
2019-03-26T23:45:18.486Z,12.03
2019-03-26T23:47:46.415Z,14.03
2019-03-26T23:50:15.867Z,14.03
2019-03-26T23:52:46.295Z,14.03
2019-03-26T23:55:14.729Z,10.90
2019-03-26T23:57:46.272Z,11.93
